createdAt,value
2018-03-01T00:00:08.061Z,1011.76
2018-03-01T00:00:34.169Z,1011.72
2018-03-01T00:01:00.262Z,1011.75
2018-03-01T00:01:26.359Z,1011.73
2018-03-01T00:01:52.465Z,1011.76
2018-03-01T00:02:18.557Z,1011.65
2018-03-01T00:02:44.652Z,1011.7
2018-03-01T00:03:10.744Z,1011.73
2018-03-01T00:03:36.860Z,1011.72
2018-03-01T00:04:02.951Z,1011.78
2018-03-01T00:04:29.053Z,1011.72
2018-03-01T00:04:55.171Z,1011.77
2018-03-01T00:05:21.300Z,1011.68
2018-03-01T00:05:47.394Z,1011.75
2018-03-01T00:06:13.492Z,1011.66
2018-03-01T00:06:39.591Z,1011.7
2018-03-01T00:07:05.688Z,1011.7
2018-03-01T00:07:31.789Z,1011.68
2018-03-01T00:07:57.881Z,1011.67
2018-03-01T00:08:23.977Z,1011.6
2018-03-01T00:08:50.073Z,1011.65
2018-03-01T00:09:16.175Z,1011.81
2018-03-01T00:09:42.267Z,1011.66
2018-03-01T00:10:08.360Z,1011.59
2018-03-01T00:10:34.464Z,1011.63
2018-03-01T00:11:00.555Z,1011.61
2018-03-01T00:11:26.674Z,1011.52
2018-03-01T00:11:52.751Z,1011.68
2018-03-01T00:12:18.864Z,1011.67
2018-03-01T00:12:44.962Z,1011.68
2018-03-01T00:13:11.059Z,1011.74
2018-03-01T00:13:37.155Z,1011.62
2018-03-01T00:14:03.257Z,1011.63
2018-03-01T00:14:29.349Z,1011.75
2018-03-01T00:14:55.448Z,1011.71
2018-03-01T00:15:21.546Z,1011.68
2018-03-01T00:15:47.665Z,1011.49
2018-03-01T00:16:13.761Z,1011.6
2018-03-01T00:16:39.863Z,1011.55
2018-03-01T00:17:05.965Z,1011.51
2018-03-01T00:17:32.063Z,1011.64
2018-03-01T00:17:58.154Z,1011.52
2018-03-01T00:18:24.254Z,1011.53
2018-03-01T00:18:50.370Z,1011.46
2018-03-01T00:19:16.512Z,1011.57
2018-03-01T00:19:42.570Z,1011.49
2018-03-01T00:20:08.667Z,1011.52
2018-03-01T00:20:34.768Z,1011.59
2018-03-01T00:21:00.871Z,1011.59
2018-03-01T00:21:26.963Z,1011.57
2018-03-01T00:21:53.062Z,1011.55
2018-03-01T00:22:19.184Z,1011.7
2018-03-01T00:22:45.264Z,1011.58
2018-03-01T00:23:11.362Z,1011.65
2018-03-01T00:23:37.462Z,1011.61
2018-03-01T00:24:03.559Z,1011.6
2018-03-01T00:24:29.651Z,1011.63
2018-03-01T00:24:55.761Z,1011.72
2018-03-01T00:25:21.863Z,1011.57
2018-03-01T00:25:47.958Z,1011.72
2018-03-01T00:26:14.064Z,1011.65
2018-03-01T00:26:40.173Z,1011.54
2018-03-01T00:27:06.280Z,1011.6
2018-03-01T00:27:32.362Z,1011.58
2018-03-01T00:27:58.457Z,1011.72
2018-03-01T00:28:24.548Z,1011.49
2018-03-01T00:28:50.648Z,1011.76
2018-03-01T00:29:16.774Z,1011.72
2018-03-01T00:29:42.870Z,1011.65
2018-03-01T00:30:09.020Z,1011.59
2018-03-01T00:30:35.142Z,1011.63
2018-03-01T00:31:01.260Z,1011.65
2018-03-01T00:31:27.357Z,1011.64
2018-03-01T00:31:53.454Z,1011.55
2018-03-01T00:32:19.559Z,1011.6
2018-03-01T00:32:45.660Z,1011.49
2018-03-01T00:33:11.753Z,1011.63
2018-03-01T00:33:37.851Z,1011.5
2018-03-01T00:34:03.945Z,1011.6
2018-03-01T00:34:30.036Z,1011.72
2018-03-01T00:34:56.134Z,1011.54
2018-03-01T00:35:22.232Z,1011.59
2018-03-01T00:35:48.337Z,1011.54
2018-03-01T00:36:14.421Z,1011.62
2018-03-01T00:36:40.516Z,1011.64
2018-03-01T00:37:06.612Z,1011.54
2018-03-01T00:37:32.702Z,1011.58
2018-03-01T00:37:58.805Z,1011.6
2018-03-01T00:38:24.896Z,1011.47
2018-03-01T00:38:50.992Z,1011.62
2018-03-01T00:39:17.294Z,1011.57
2018-03-01T00:39:43.394Z,1011.47
2018-03-01T00:40:09.486Z,1011.41
2018-03-01T00:40:35.577Z,1011.59
2018-03-01T00:41:01.702Z,1011.63
2018-03-01T00:41:27.790Z,1011.63
2018-03-01T00:41:53.881Z,1011.54
2018-03-01T00:42:20.036Z,1011.58
2018-03-01T00:42:46.086Z,1011.48
2018-03-01T00:43:12.182Z,1011.45
2018-03-01T00:43:38.282Z,1011.46
2018-03-01T00:44:04.380Z,1011.61
2018-03-01T00:44:30.493Z,1011.44
2018-03-01T00:44:56.592Z,1011.46
2018-03-01T00:45:22.682Z,1011.55
2018-03-01T00:45:48.780Z,1011.74
2018-03-01T00:46:14.909Z,1011.38
2018-03-01T00:46:40.961Z,1011.49
2018-03-01T00:47:07.082Z,1011.4
2018-03-01T00:47:33.178Z,1011.44
2018-03-01T00:47:59.270Z,1011.42
2018-03-01T00:48:25.370Z,1011.33
2018-03-01T00:48:51.469Z,1011.4
2018-03-01T00:49:17.555Z,1011.43
2018-03-01T00:49:43.655Z,1011.34
2018-03-01T00:50:09.750Z,1011.31
2018-03-01T00:50:35.845Z,1011.43
2018-03-01T00:51:01.946Z,1011.65
2018-03-01T00:51:28.052Z,1011.4
2018-03-01T00:51:54.155Z,1011.47
2018-03-01T00:52:20.245Z,1011.27
2018-03-01T00:52:46.338Z,1011.34
2018-03-01T00:53:12.440Z,1011.31
2018-03-01T00:53:38.589Z,1011.34
2018-03-01T00:54:04.631Z,1011.32
2018-03-01T00:54:30.723Z,1011.31
2018-03-01T00:54:56.817Z,1011.27
2018-03-01T00:55:22.936Z,1011.31
2018-03-01T00:55:49.045Z,1011.38
2018-03-01T00:56:15.144Z,1011.34
2018-03-01T00:56:41.233Z,1011.32
2018-03-01T00:57:07.352Z,1011.39
2018-03-01T00:57:33.442Z,1011.2
2018-03-01T00:57:59.537Z,1011.21
2018-03-01T00:58:25.634Z,1011.25
2018-03-01T00:58:51.747Z,1011.26
2018-03-01T00:59:17.847Z,1011.27
2018-03-01T00:59:43.945Z,1011.29
2018-03-01T01:00:10.039Z,1011.16
2018-03-01T01:00:36.155Z,1011.16
2018-03-01T01:01:02.250Z,1011.22
2018-03-01T01:01:28.343Z,1011.1
2018-03-01T01:01:54.442Z,1011.27
2018-03-01T01:02:20.541Z,1011.11
2018-03-01T01:02:46.636Z,1011.25
2018-03-01T01:03:12.742Z,1011.11
2018-03-01T01:03:38.840Z,1011.14
2018-03-01T01:04:04.935Z,1011.15
2018-03-01T01:04:31.026Z,1011.18
2018-03-01T01:04:57.124Z,1011.21
2018-03-01T01:05:23.212Z,1011.21
2018-03-01T01:05:49.337Z,1011.31
2018-03-01T01:06:15.472Z,1011.16
2018-03-01T01:06:41.570Z,1011.13
2018-03-01T01:07:07.683Z,1011.08
2018-03-01T01:07:33.772Z,1011.22
2018-03-01T01:07:59.877Z,1011.16
2018-03-01T01:08:25.974Z,1011.19
2018-03-01T01:08:52.072Z,1011.15
2018-03-01T01:09:18.166Z,1011.16
2018-03-01T01:09:44.262Z,1011.13
2018-03-01T01:10:10.362Z,1011.14
2018-03-01T01:10:36.467Z,1011.2
2018-03-01T01:11:02.576Z,1011.13
2018-03-01T01:11:28.680Z,1011.17
2018-03-01T01:11:54.772Z,1011.13
2018-03-01T01:12:20.879Z,1011.19
2018-03-01T01:12:46.960Z,1011.24
2018-03-01T01:13:13.084Z,1011.17
2018-03-01T01:13:39.167Z,1011.2
2018-03-01T01:14:05.266Z,1011.23
2018-03-01T01:14:31.357Z,1011.21
2018-03-01T01:14:57.456Z,1011.13
2018-03-01T01:15:23.556Z,1011.15
2018-03-01T01:15:49.648Z,1011.11
2018-03-01T01:16:15.744Z,1011.23
2018-03-01T01:16:41.844Z,1011.1
2018-03-01T01:17:07.939Z,1011.21
2018-03-01T01:17:34.033Z,1011.15
2018-03-01T01:18:00.137Z,1011.2
2018-03-01T01:18:26.243Z,1011.15
2018-03-01T01:18:52.373Z,1011.11
2018-03-01T01:19:18.432Z,1011.08
2018-03-01T01:19:44.530Z,1011.14
2018-03-01T01:20:10.619Z,1011.11
2018-03-01T01:20:36.720Z,1011.16
2018-03-01T01:21:02.812Z,1011.16
2018-03-01T01:21:28.904Z,1011.18
2018-03-01T01:21:55.004Z,1011.19
2018-03-01T01:22:21.101Z,1011.11
2018-03-01T01:22:47.209Z,1011.07
2018-03-01T01:23:13.306Z,1011.11
2018-03-01T01:23:39.401Z,1011.13
2018-03-01T01:24:05.491Z,1011.11
2018-03-01T01:24:31.594Z,1011.12
2018-03-01T01:24:57.694Z,1011.08
2018-03-01T01:25:23.792Z,1011.06
2018-03-01T01:25:49.881Z,1011.02
2018-03-01T01:26:16.077Z,1011.15
2018-03-01T01:26:42.232Z,1011.09
2018-03-01T01:27:08.389Z,1011.03
2018-03-01T01:27:34.486Z,1010.96
2018-03-01T01:28:00.578Z,1011.04
2018-03-01T01:28:26.678Z,1011
2018-03-01T01:28:52.772Z,1011.02
2018-03-01T01:29:18.868Z,1011.06
2018-03-01T01:29:44.966Z,1011.07
2018-03-01T01:30:11.063Z,1011.04
2018-03-01T01:30:37.156Z,1011.12
2018-03-01T01:31:03.273Z,1010.98
2018-03-01T01:31:29.369Z,1011.02
2018-03-01T01:31:55.478Z,1011
2018-03-01T01:32:21.645Z,1011
2018-03-01T01:32:47.762Z,1011.02
2018-03-01T01:33:13.858Z,1011.07
2018-03-01T01:33:39.952Z,1011.03
2018-03-01T01:34:06.048Z,1011.01
2018-03-01T01:34:32.144Z,1010.96
2018-03-01T01:34:58.247Z,1010.97
2018-03-01T01:35:24.356Z,1010.9
2018-03-01T01:35:50.459Z,1011
2018-03-01T01:36:16.974Z,1010.95
2018-03-01T01:36:43.292Z,1011.03
2018-03-01T01:37:09.420Z,1010.92
2018-03-01T01:37:35.549Z,1011.1
2018-03-01T01:38:01.643Z,1010.66
2018-03-01T01:38:27.814Z,1010.88
2018-03-01T01:38:53.906Z,1010.84
2018-03-01T01:39:20.005Z,1010.94
2018-03-01T01:39:46.104Z,1010.94
2018-03-01T01:40:12.197Z,1010.87
2018-03-01T01:40:38.296Z,1010.95
2018-03-01T01:41:04.394Z,1010.93
2018-03-01T01:41:30.493Z,1011
2018-03-01T01:41:56.586Z,1010.86
2018-03-01T01:42:22.742Z,1010.86
2018-03-01T01:42:48.841Z,1010.9
2018-03-01T01:43:14.943Z,1010.85
2018-03-01T01:43:41.036Z,1010.91
2018-03-01T01:44:07.130Z,1010.88
2018-03-01T01:44:33.232Z,1010.83
2018-03-01T01:44:59.323Z,1010.85
2018-03-01T01:45:25.426Z,1010.84
2018-03-01T01:45:51.518Z,1010.85
2018-03-01T01:46:17.609Z,1010.88
2018-03-01T01:46:43.706Z,1010.81
2018-03-01T01:47:09.802Z,1010.94
2018-03-01T01:47:35.898Z,1010.89
2018-03-01T01:48:01.999Z,1010.86
2018-03-01T01:48:28.150Z,1010.87
2018-03-01T01:48:54.398Z,1010.88
2018-03-01T01:49:20.514Z,1010.84
2018-03-01T01:49:46.605Z,1010.84
2018-03-01T01:50:12.708Z,1010.78
2018-03-01T01:50:38.823Z,1010.97
2018-03-01T01:51:04.922Z,1010.81
2018-03-01T01:51:31.019Z,1010.93
2018-03-01T01:51:57.132Z,1010.79
2018-03-01T01:52:23.301Z,1010.78
2018-03-01T01:52:49.411Z,1010.87
2018-03-01T01:53:15.511Z,1010.79
2018-03-01T01:53:41.607Z,1010.77
2018-03-01T01:54:07.705Z,1010.67
2018-03-01T01:54:33.805Z,1010.7
2018-03-01T01:54:59.902Z,1010.74
2018-03-01T01:55:26.000Z,1010.83
2018-03-01T01:55:52.092Z,1010.71
2018-03-01T01:56:18.187Z,1010.69
2018-03-01T01:56:44.282Z,1010.73
2018-03-01T01:57:10.396Z,1010.79
2018-03-01T01:57:36.496Z,1010.76
2018-03-01T01:58:02.600Z,1010.76
2018-03-01T01:58:28.691Z,1010.7
2018-03-01T01:58:54.792Z,1010.76
2018-03-01T01:59:20.900Z,1010.76
2018-03-01T01:59:47.003Z,1010.87
2018-03-01T02:00:13.100Z,1010.77
2018-03-01T02:00:39.198Z,1010.65
2018-03-01T02:01:05.309Z,1010.73
2018-03-01T02:01:31.409Z,1010.74
2018-03-01T02:01:57.497Z,1010.72
2018-03-01T02:02:23.593Z,1010.81
2018-03-01T02:02:49.694Z,1010.78
2018-03-01T02:03:15.793Z,1010.78
2018-03-01T02:03:41.889Z,1010.85
2018-03-01T02:04:08.001Z,1010.68
2018-03-01T02:04:34.108Z,1010.75
2018-03-01T02:05:00.194Z,1010.7
2018-03-01T02:05:26.294Z,1010.68
2018-03-01T02:05:52.386Z,1010.76
2018-03-01T02:06:18.484Z,1010.67
2018-03-01T02:06:44.578Z,1010.9
2018-03-01T02:07:10.676Z,1010.75
2018-03-01T02:07:36.770Z,1010.74
2018-03-01T02:08:02.865Z,1010.65
2018-03-01T02:08:28.959Z,1010.6
2018-03-01T02:08:55.060Z,1010.72
2018-03-01T02:09:21.155Z,1010.84
2018-03-01T02:09:47.254Z,1010.69
2018-03-01T02:10:13.352Z,1010.53
2018-03-01T02:10:39.446Z,1010.66
2018-03-01T02:11:05.543Z,1010.66
2018-03-01T02:11:31.643Z,1010.59
2018-03-01T02:11:57.741Z,1010.61
2018-03-01T02:12:23.834Z,1010.61
2018-03-01T02:12:49.936Z,1010.6
2018-03-01T02:13:16.031Z,1010.6
2018-03-01T02:13:42.133Z,1010.51
2018-03-01T02:14:08.229Z,1010.52
2018-03-01T02:14:34.321Z,1010.55
2018-03-01T02:15:00.427Z,1010.64
2018-03-01T02:15:26.544Z,1010.74
2018-03-01T02:15:52.633Z,1010.48
2018-03-01T02:16:18.732Z,1010.56
2018-03-01T02:16:44.828Z,1010.4
2018-03-01T02:17:10.928Z,1010.34
2018-03-01T02:17:37.021Z,1010.37
2018-03-01T02:18:03.123Z,1010.4
2018-03-01T02:18:29.213Z,1010.39
2018-03-01T02:18:55.307Z,1010.36
2018-03-01T02:19:21.411Z,1010.34
2018-03-01T02:19:47.503Z,1010.4
2018-03-01T02:20:13.597Z,1010.27
2018-03-01T02:20:39.699Z,1010.26
2018-03-01T02:21:05.812Z,1010.31
2018-03-01T02:21:31.906Z,1010.24
2018-03-01T02:21:58.017Z,1010.28
2018-03-01T02:22:24.116Z,1010.27
2018-03-01T02:22:50.220Z,1010.18
2018-03-01T02:23:16.310Z,1010.21
2018-03-01T02:23:42.412Z,1010.24
2018-03-01T02:24:08.511Z,1010.19
2018-03-01T02:24:34.606Z,1010.19
2018-03-01T02:25:00.703Z,1010.18
2018-03-01T02:25:26.803Z,1010.25
2018-03-01T02:25:52.899Z,1010.24
2018-03-01T02:26:18.993Z,1010.17
2018-03-01T02:26:45.086Z,1010.37
2018-03-01T02:27:11.181Z,1010.16
2018-03-01T02:27:37.276Z,1010.17
2018-03-01T02:28:03.377Z,1010.23
2018-03-01T02:28:29.478Z,1010.16
2018-03-01T02:28:55.574Z,1010.06
2018-03-01T02:29:21.675Z,1010.26
2018-03-01T02:29:47.774Z,1010.14
2018-03-01T02:30:13.874Z,1010.21
2018-03-01T02:30:39.974Z,1010.22
2018-03-01T02:31:06.070Z,1010.22
2018-03-01T02:31:32.184Z,1010.12
2018-03-01T02:31:58.303Z,1010.09
2018-03-01T02:32:24.389Z,1010.36
2018-03-01T02:32:50.484Z,1010.2
2018-03-01T02:33:16.585Z,1010.14
2018-03-01T02:33:42.676Z,1010.18
2018-03-01T02:34:08.776Z,1010.21
2018-03-01T02:34:34.872Z,1010.14
2018-03-01T02:35:00.965Z,1010.06
2018-03-01T02:35:27.060Z,1010.08
2018-03-01T02:35:53.199Z,1010.12
2018-03-01T02:36:19.294Z,1010.08
2018-03-01T02:36:45.382Z,1009.98
2018-03-01T02:37:11.482Z,1010.15
2018-03-01T02:37:37.596Z,1010.13
2018-03-01T02:38:03.696Z,1010.28
2018-03-01T02:38:29.790Z,1009.98
2018-03-01T02:38:55.891Z,1010.1
2018-03-01T02:39:22.008Z,1010.04
2018-03-01T02:39:48.110Z,1010.1
2018-03-01T02:40:14.211Z,1010
2018-03-01T02:40:40.323Z,1009.97
2018-03-01T02:41:06.424Z,1009.97
2018-03-01T02:41:32.518Z,1010.08
2018-03-01T02:41:58.612Z,1009.97
2018-03-01T02:42:24.716Z,1009.96
2018-03-01T02:42:50.859Z,1009.99
2018-03-01T02:43:16.932Z,1009.99
2018-03-01T02:43:43.024Z,1010.05
2018-03-01T02:44:09.123Z,1009.96
2018-03-01T02:44:35.218Z,1010.23
2018-03-01T02:45:01.337Z,1009.96
2018-03-01T02:45:27.455Z,1009.9
2018-03-01T02:45:53.549Z,1009.96
2018-03-01T02:46:19.667Z,1009.97
2018-03-01T02:46:45.755Z,1010.03
2018-03-01T02:47:11.841Z,1010.01
2018-03-01T02:47:37.938Z,1010
2018-03-01T02:48:04.038Z,1010.11
2018-03-01T02:48:30.139Z,1010.02
2018-03-01T02:48:56.235Z,1010.05
2018-03-01T02:49:22.333Z,1009.95
2018-03-01T02:49:48.432Z,1009.9
2018-03-01T02:50:14.524Z,1009.95
2018-03-01T02:50:40.621Z,1010.07
2018-03-01T02:51:06.720Z,1009.95
2018-03-01T02:51:32.813Z,1009.76
2018-03-01T02:51:58.961Z,1010
2018-03-01T02:52:25.020Z,1009.96
2018-03-01T02:52:51.114Z,1010.05
2018-03-01T02:53:17.214Z,1009.89
2018-03-01T02:53:43.303Z,1010.06
2018-03-01T02:54:09.402Z,1009.84
2018-03-01T02:54:35.496Z,1009.99
2018-03-01T02:55:01.625Z,1009.84
2018-03-01T02:55:27.730Z,1009.88
2018-03-01T02:55:53.821Z,1009.89
2018-03-01T02:56:19.915Z,1009.84
2018-03-01T02:56:46.016Z,1009.91
2018-03-01T02:57:12.114Z,1009.91
2018-03-01T02:57:38.205Z,1009.81
2018-03-01T02:58:04.307Z,1009.83
2018-03-01T02:58:30.471Z,1009.9
2018-03-01T02:58:56.519Z,1009.82
2018-03-01T02:59:22.614Z,1009.88
2018-03-01T02:59:48.706Z,1009.87
2018-03-01T03:00:14.804Z,1009.88
2018-03-01T03:00:40.899Z,1009.98
2018-03-01T03:01:06.997Z,1009.76
2018-03-01T03:01:33.099Z,1009.83
2018-03-01T03:01:59.208Z,1009.95
2018-03-01T03:02:25.308Z,1009.87
2018-03-01T03:02:51.403Z,1009.78
2018-03-01T03:03:17.495Z,1009.87
2018-03-01T03:03:43.592Z,1009.79
2018-03-01T03:04:09.689Z,1009.79
2018-03-01T03:04:35.790Z,1009.84
2018-03-01T03:05:01.947Z,1009.89
2018-03-01T03:05:27.982Z,1009.93
2018-03-01T03:05:54.081Z,1009.77
2018-03-01T03:06:20.175Z,1009.77
2018-03-01T03:06:46.270Z,1009.72
2018-03-01T03:07:12.366Z,1009.72
2018-03-01T03:07:38.462Z,1009.71
2018-03-01T03:08:04.580Z,1009.82
2018-03-01T03:08:30.678Z,1009.72
2018-03-01T03:08:56.792Z,1009.68
2018-03-01T03:09:22.890Z,1009.63
2018-03-01T03:09:48.986Z,1009.83
2018-03-01T03:10:15.084Z,1009.82
2018-03-01T03:10:41.183Z,1009.8
2018-03-01T03:11:07.276Z,1009.72
2018-03-01T03:11:33.376Z,1009.78
2018-03-01T03:11:59.467Z,1009.63
2018-03-01T03:12:25.559Z,1009.65
2018-03-01T03:12:51.679Z,1009.75
2018-03-01T03:13:17.771Z,1009.6
2018-03-01T03:13:43.884Z,1009.82
2018-03-01T03:14:09.986Z,1009.67
2018-03-01T03:14:36.077Z,1009.69
2018-03-01T03:15:02.178Z,1009.7
2018-03-01T03:15:28.276Z,1009.65
2018-03-01T03:15:54.366Z,1009.64
2018-03-01T03:16:20.468Z,1009.74
2018-03-01T03:16:46.565Z,1009.7
2018-03-01T03:17:12.659Z,1009.63
2018-03-01T03:17:38.764Z,1009.8
2018-03-01T03:18:04.872Z,1009.63
2018-03-01T03:18:30.965Z,1009.66
2018-03-01T03:18:57.058Z,1009.65
2018-03-01T03:19:23.159Z,1009.54
2018-03-01T03:19:49.260Z,1009.59
2018-03-01T03:20:15.368Z,1009.79
2018-03-01T03:20:41.463Z,1009.57
2018-03-01T03:21:07.562Z,1009.65
2018-03-01T03:21:33.661Z,1009.59
2018-03-01T03:21:59.751Z,1009.64
2018-03-01T03:22:25.851Z,1009.64
2018-03-01T03:22:51.948Z,1009.82
2018-03-01T03:23:18.042Z,1009.56
2018-03-01T03:23:44.142Z,1009.6
2018-03-01T03:24:10.234Z,1009.53
2018-03-01T03:24:36.398Z,1009.57
2018-03-01T03:25:02.448Z,1009.45
2018-03-01T03:25:28.569Z,1009.61
2018-03-01T03:25:54.663Z,1009.57
2018-03-01T03:26:20.765Z,1009.49
2018-03-01T03:26:46.859Z,1009.38
2018-03-01T03:27:12.965Z,1009.55
2018-03-01T03:27:39.061Z,1009.49
2018-03-01T03:28:05.156Z,1009.47
2018-03-01T03:28:31.255Z,1009.36
2018-03-01T03:28:57.372Z,1009.46
2018-03-01T03:29:23.525Z,1009.54
2018-03-01T03:29:49.563Z,1009.46
2018-03-01T03:30:15.660Z,1009.38
2018-03-01T03:30:41.756Z,1009.48
2018-03-01T03:31:07.855Z,1009.45
2018-03-01T03:31:33.946Z,1009.58
2018-03-01T03:32:00.040Z,1009.49
2018-03-01T03:32:26.141Z,1009.39
2018-03-01T03:32:52.253Z,1009.48
2018-03-01T03:33:18.350Z,1009.41
2018-03-01T03:33:44.459Z,1009.45
2018-03-01T03:34:10.558Z,1009.38
2018-03-01T03:34:36.657Z,1009.39
2018-03-01T03:35:02.750Z,1009.34
2018-03-01T03:35:28.851Z,1009.39
2018-03-01T03:35:54.970Z,1009.35
2018-03-01T03:36:21.069Z,1009.41
2018-03-01T03:36:47.163Z,1009.36
2018-03-01T03:37:13.255Z,1009.35
2018-03-01T03:37:39.372Z,1009.4
2018-03-01T03:38:05.466Z,1009.37
2018-03-01T03:38:31.568Z,1009.31
2018-03-01T03:38:57.659Z,1009.33
2018-03-01T03:39:23.774Z,1009.38
2018-03-01T03:39:49.867Z,1009.34
2018-03-01T03:40:15.988Z,1009.26
2018-03-01T03:40:42.088Z,1009.33
2018-03-01T03:41:08.198Z,1009.21
2018-03-01T03:41:34.298Z,1009.32
2018-03-01T03:42:00.395Z,1009.15
2018-03-01T03:42:26.493Z,1009.12
2018-03-01T03:42:52.586Z,1009.25
2018-03-01T03:43:18.681Z,1009.23
2018-03-01T03:43:44.797Z,1009.23
2018-03-01T03:44:10.890Z,1009.18
2018-03-01T03:44:36.991Z,1009.2
2018-03-01T03:45:03.086Z,1009.22
2018-03-01T03:45:29.198Z,1009.35
2018-03-01T03:45:55.296Z,1009.32
2018-03-01T03:46:21.403Z,1009.18
2018-03-01T03:46:47.499Z,1009.24
2018-03-01T03:47:13.599Z,1009.36
2018-03-01T03:47:39.697Z,1009.23
2018-03-01T03:48:05.792Z,1009.25
2018-03-01T03:48:31.924Z,1009.27
2018-03-01T03:48:58.015Z,1009.21
2018-03-01T03:49:24.111Z,1009.32
2018-03-01T03:49:50.218Z,1009.34
2018-03-01T03:50:16.332Z,1009.26
2018-03-01T03:50:42.424Z,1009.27
2018-03-01T03:51:08.517Z,1009.15
2018-03-01T03:51:34.612Z,1009.23
2018-03-01T03:52:00.710Z,1009.29
2018-03-01T03:52:26.808Z,1009.12
2018-03-01T03:52:52.896Z,1009.2
2018-03-01T03:53:18.997Z,1009.43
2018-03-01T03:53:45.090Z,1009.17
2018-03-01T03:54:11.185Z,1009.24
2018-03-01T03:54:37.286Z,1009.3
2018-03-01T03:55:03.375Z,1009.17
2018-03-01T03:55:29.469Z,1009.47
2018-03-01T03:55:55.564Z,1009.27
2018-03-01T03:56:21.664Z,1009.36
2018-03-01T03:56:47.761Z,1009.26
2018-03-01T03:57:13.861Z,1009.29
2018-03-01T03:57:39.951Z,1009.13
2018-03-01T03:58:06.051Z,1009.21
2018-03-01T03:58:32.149Z,1009.31
2018-03-01T03:58:58.259Z,1009.3
2018-03-01T03:59:24.362Z,1009.49
2018-03-01T03:59:50.464Z,1009.31
2018-03-01T04:00:16.556Z,1009.26
2018-03-01T04:00:42.651Z,1009.23
2018-03-01T04:01:08.751Z,1009.39
2018-03-01T04:01:34.845Z,1009.16
2018-03-01T04:02:00.937Z,1009.29
2018-03-01T04:02:27.061Z,1009.18
2018-03-01T04:02:53.167Z,1009.25
2018-03-01T04:03:19.260Z,1009.2
2018-03-01T04:03:45.361Z,1009.25
2018-03-01T04:04:11.455Z,1009.2
2018-03-01T04:04:37.553Z,1009.09
2018-03-01T04:05:03.663Z,1009.17
2018-03-01T04:05:29.753Z,1009.16
2018-03-01T04:05:55.871Z,1009.09
2018-03-01T04:06:21.967Z,1009.1
2018-03-01T04:06:48.070Z,1009.13
2018-03-01T04:07:14.163Z,1009.2
2018-03-01T04:07:40.257Z,1009.16
2018-03-01T04:08:06.360Z,1009.28
2018-03-01T04:08:32.455Z,1009.18
2018-03-01T04:08:58.550Z,1009.23
2018-03-01T04:09:24.643Z,1009.1
2018-03-01T04:09:50.738Z,1009.19
2018-03-01T04:10:16.853Z,1009.18
2018-03-01T04:10:42.953Z,1009.19
2018-03-01T04:11:09.049Z,1009.18
2018-03-01T04:11:35.142Z,1009.18
2018-03-01T04:12:01.235Z,1009.14
2018-03-01T04:12:27.340Z,1009.18
2018-03-01T04:12:53.438Z,1009.08
2018-03-01T04:13:19.538Z,1009.14
2018-03-01T04:13:45.652Z,1009.13
2018-03-01T04:14:11.741Z,1009.16
2018-03-01T04:14:37.839Z,1009.14
2018-03-01T04:15:03.931Z,1009.15
2018-03-01T04:15:30.033Z,1009.25
2018-03-01T04:15:56.128Z,1009.25
2018-03-01T04:16:22.227Z,1009.16
2018-03-01T04:16:48.330Z,1009.1
2018-03-01T04:17:14.430Z,1009.12
2018-03-01T04:17:40.531Z,1009.08
2018-03-01T04:18:06.625Z,1009.02
2018-03-01T04:18:32.718Z,1009.1
2018-03-01T04:18:58.828Z,1009.08
2018-03-01T04:19:24.931Z,1009.04
2018-03-01T04:19:51.035Z,1009.05
2018-03-01T04:20:17.146Z,1009.09
2018-03-01T04:20:43.247Z,1009.14
2018-03-01T04:21:09.331Z,1008.99
2018-03-01T04:21:35.446Z,1009.05
2018-03-01T04:22:01.540Z,1009.06
2018-03-01T04:22:27.642Z,1009.03
2018-03-01T04:22:53.774Z,1009.12
2018-03-01T04:23:19.831Z,1009.08
2018-03-01T04:23:45.930Z,1009.04
2018-03-01T04:24:12.026Z,1009.08
2018-03-01T04:24:38.147Z,1009.03
2018-03-01T04:25:04.243Z,1009.04
2018-03-01T04:25:30.335Z,1009.09
2018-03-01T04:25:56.441Z,1009.05
2018-03-01T04:26:22.535Z,1009.02
2018-03-01T04:26:48.630Z,1009.12
2018-03-01T04:27:14.732Z,1009.08
2018-03-01T04:27:40.820Z,1009.05
2018-03-01T04:28:06.923Z,1009.02
2018-03-01T04:28:33.014Z,1009.16
2018-03-01T04:28:59.114Z,1009.11
2018-03-01T04:29:25.222Z,1009.05
2018-03-01T04:29:51.309Z,1009.23
2018-03-01T04:30:17.400Z,1009.08
2018-03-01T04:30:43.501Z,1009.08
2018-03-01T04:31:09.597Z,1009.07
2018-03-01T04:31:35.688Z,1009.11
2018-03-01T04:32:01.788Z,1009.14
2018-03-01T04:32:27.893Z,1009.02
2018-03-01T04:32:53.993Z,1009.16
2018-03-01T04:33:20.090Z,1009.1
2018-03-01T04:33:46.191Z,1009.08
2018-03-01T04:34:12.286Z,1009.11
2018-03-01T04:34:38.381Z,1009.21
2018-03-01T04:35:04.498Z,1009.28
2018-03-01T04:35:30.594Z,1009.18
2018-03-01T04:35:56.687Z,1009.06
2018-03-01T04:36:22.785Z,1009.11
2018-03-01T04:36:48.891Z,1009.06
2018-03-01T04:37:14.985Z,1009.06
2018-03-01T04:37:41.074Z,1009.13
2018-03-01T04:38:07.172Z,1009.06
2018-03-01T04:38:33.270Z,1009.12
2018-03-01T04:38:59.377Z,1009.14
2018-03-01T04:39:25.471Z,1009.02
2018-03-01T04:39:51.574Z,1008.98
2018-03-01T04:40:17.712Z,1008.95
2018-03-01T04:40:43.799Z,1008.94
2018-03-01T04:41:09.913Z,1008.98
2018-03-01T04:41:36.006Z,1008.97
2018-03-01T04:42:02.111Z,1009.01
2018-03-01T04:42:28.209Z,1009.09
2018-03-01T04:42:54.296Z,1009.01
2018-03-01T04:43:20.400Z,1009.06
2018-03-01T04:43:46.498Z,1009.01
2018-03-01T04:44:12.591Z,1009
2018-03-01T04:44:38.690Z,1009.08
2018-03-01T04:45:04.788Z,1009.09
2018-03-01T04:45:30.910Z,1009.04
2018-03-01T04:45:57.026Z,1009.01
2018-03-01T04:46:23.117Z,1009.19
2018-03-01T04:46:49.219Z,1009.05
2018-03-01T04:47:15.314Z,1009.04
2018-03-01T04:47:41.410Z,1009.09
2018-03-01T04:48:07.507Z,1009.12
2018-03-01T04:48:33.603Z,1008.97
2018-03-01T04:48:59.698Z,1009
2018-03-01T04:49:25.791Z,1009.01
2018-03-01T04:49:51.889Z,1009.05
2018-03-01T04:50:17.990Z,1009.1
2018-03-01T04:50:44.083Z,1008.98
2018-03-01T04:51:10.184Z,1009.01
2018-03-01T04:51:36.282Z,1009.04
2018-03-01T04:52:02.381Z,1009.04
2018-03-01T04:52:28.490Z,1009.19
2018-03-01T04:52:54.584Z,1009.03
2018-03-01T04:53:20.686Z,1009.04
2018-03-01T04:53:46.783Z,1009.08
2018-03-01T04:54:12.880Z,1009.11
2018-03-01T04:54:38.987Z,1009.01
2018-03-01T04:55:05.086Z,1009.18
2018-03-01T04:55:31.184Z,1009.1
2018-03-01T04:55:57.277Z,1009.13
2018-03-01T04:56:23.412Z,1009.18
2018-03-01T04:56:49.505Z,1009.2
2018-03-01T04:57:15.599Z,1009.15
2018-03-01T04:57:41.727Z,1009.15
2018-03-01T04:58:07.813Z,1009.17
2018-03-01T04:58:33.916Z,1009.15
2018-03-01T04:59:00.015Z,1009.12
2018-03-01T04:59:26.105Z,1009.21
2018-03-01T04:59:52.207Z,1009.12
2018-03-01T05:00:18.301Z,1009.02
2018-03-01T05:00:44.396Z,1009.06
2018-03-01T05:01:10.495Z,1009.09
2018-03-01T05:01:36.600Z,1008.98
2018-03-01T05:02:02.690Z,1009.09
2018-03-01T05:02:28.781Z,1009
2018-03-01T05:02:54.882Z,1008.93
2018-03-01T05:03:20.980Z,1009.04
2018-03-01T05:03:47.090Z,1008.91
2018-03-01T05:04:13.188Z,1008.99
2018-03-01T05:04:39.299Z,1008.88
2018-03-01T05:05:05.400Z,1008.85
2018-03-01T05:05:31.509Z,1008.96
2018-03-01T05:05:57.607Z,1008.88
2018-03-01T05:06:23.702Z,1008.91
2018-03-01T05:06:49.799Z,1008.84
2018-03-01T05:07:15.898Z,1008.79
2018-03-01T05:07:42.003Z,1008.8
2018-03-01T05:08:08.097Z,1008.79
2018-03-01T05:08:34.197Z,1008.81
2018-03-01T05:09:00.292Z,1008.75
2018-03-01T05:09:26.385Z,1008.69
2018-03-01T05:09:52.478Z,1008.77
2018-03-01T05:10:18.580Z,1008.72
2018-03-01T05:10:44.692Z,1008.68
2018-03-01T05:11:10.782Z,1008.68
2018-03-01T05:11:36.900Z,1008.68
2018-03-01T05:12:02.999Z,1008.66
2018-03-01T05:12:29.096Z,1008.62
2018-03-01T05:12:55.193Z,1008.64
2018-03-01T05:13:21.280Z,1008.72
2018-03-01T05:13:47.386Z,1008.68
2018-03-01T05:14:13.476Z,1008.54
2018-03-01T05:14:39.574Z,1008.57
2018-03-01T05:15:05.670Z,1008.73
2018-03-01T05:15:31.764Z,1008.53
2018-03-01T05:15:57.860Z,1008.64
2018-03-01T05:16:23.956Z,1008.54
2018-03-01T05:16:50.056Z,1008.53